Time;durP1;ratioP1;P1;durP2;ratioP2;P2;SDS_P1;SDS_P2;PMS_P1;PMS_P2;Temp;Humidity;BMP_temperature;BMP_pressure;BME280_temperature;BME280_humidity;BME280_pressure;Samples;Min_cycle;Max_cycle;Signal;HPM_P1;HPM_P2
2022/03/11 00:00:34;;;;;;;23.20;19.80;;;;;;;2.91;68.94;102720.91;5053776;28;20514;-47
2022/03/11 00:03:02;;;;;;;22.50;18.87;;;;;;;2.86;68.80;102723.00;5053991;28;20542;-47
2022/03/11 00:05:32;;;;;;;22.53;18.83;;;;;;;2.83;69.18;102717.06;5053833;28;20462;-45
2022/03/11 00:07:59;;;;;;;19.27;17.37;;;;;;;2.81;68.97;102716.34;5050049;28;20474;-45
2022/03/11 00:10:27;;;;;;;25.33;18.57;;;;;;;2.79;69.11;102713.78;5053629;28;20884;-45
2022/03/11 00:12:55;;;;;;;21.70;19.50;;;;;;;2.72;69.52;102718.59;5053733;28;20550;-47
2022/03/11 00:15:22;;;;;;;21.83;17.60;;;;;;;2.67;69.38;102718.06;5053944;28;20442;-45
2022/03/11 00:17:50;;;;;;;19.87;17.57;;;;;;;2.63;69.20;102715.69;5053206;28;20464;-44
2022/03/11 00:20:20;;;;;;;19.70;17.77;;;;;;;2.59;69.18;102714.22;5053872;28;20474;-46
2022/03/11 00:22:51;;;;;;;21.20;19.17;;;;;;;2.54;68.70;102717.13;5053556;28;21008;-44
2022/03/11 00:25:20;;;;;;;19.07;17.07;;;;;;;2.52;68.67;102718.16;5053614;28;20427;-44
2022/03/11 00:27:48;;;;;;;19.07;17.17;;;;;;;2.48;68.48;102720.16;5052648;28;20654;-44
2022/03/11 00:30:16;;;;;;;23.60;18.00;;;;;;;2.44;68.53;102710.78;5053580;28;20475;-46
2022/03/11 00:32:44;;;;;;;19.33;17.17;;;;;;;2.41;68.46;102713.59;5053641;28;20458;-44
2022/03/11 00:35:13;;;;;;;22.20;18.03;;;;;;;2.36;68.59;102710.38;5053656;28;20443;-44
2022/03/11 00:37:41;;;;;;;19.17;17.17;;;;;;;2.31;68.53;102709.84;5052719;28;20546;-46
2022/03/11 00:40:13;;;;;;;18.47;16.67;;;;;;;2.25;68.21;102715.47;5053534;28;20818;-48
2022/03/11 00:42:41;;;;;;;19.33;16.60;;;;;;;2.21;68.44;102712.19;5053117;28;20451;-45
2022/03/11 00:45:09;;;;;;;18.00;15.90;;;;;;;2.16;68.51;102710.78;5053330;28;20526;-44
2022/03/11 00:47:37;;;;;;;19.33;16.33;;;;;;;2.11;68.10;102713.72;5052532;28;20530;-45
2022/03/11 00:50:06;;;;;;;18.40;15.83;;;;;;;2.09;68.18;102714.75;5053203;28;20557;-45
2022/03/11 00:52:34;;;;;;;17.97;16.20;;;;;;;2.05;67.81;102705.34;5052914;28;20522;-45
2022/03/11 00:55:03;;;;;;;18.73;16.33;;;;;;;2.03;68.11;102709.84;5052948;28;20439;-47
2022/03/11 00:57:32;;;;;;;18.30;15.60;;;;;;;2.01;67.91;102709.09;5052449;28;20522;-46
2022/03/11 00:59:59;;;;;;;18.60;16.03;;;;;;;1.95;68.30;102704.19;5053086;28;20921;-44
2022/03/11 01:02:27;;;;;;;17.83;15.33;;;;;;;1.90;68.01;102709.75;5052901;28;20451;-45
2022/03/11 01:04:55;;;;;;;17.23;15.47;;;;;;;1.86;68.15;102702.97;5052995;28;20436;-45
2022/03/11 01:07:22;;;;;;;16.90;15.03;;;;;;;1.84;68.20;102701.38;5051944;28;20518;-46
2022/03/11 01:09:50;;;;;;;15.07;13.57;;;;;;;1.82;68.19;102700.63;5052632;28;20522;-46
2022/03/11 01:12:18;;;;;;;15.67;13.93;;;;;;;1.78;68.11;102699.97;5052597;28;20831;-44
2022/03/11 01:14:47;;;;;;;15.50;13.90;;;;;;;1.75;67.93;102696.66;5052883;28;20427;-45
2022/03/11 01:17:15;;;;;;;14.97;13.63;;;;;;;1.70;67.89;102699.59;5052048;28;20439;-44
2022/03/11 01:19:42;;;;;;;17.60;14.90;;;;;;;1.65;68.09;102699.84;5052402;28;20531;-47
2022/03/11 01:22:10;;;;;;;17.43;14.83;;;;;;;1.60;67.66;102701.91;5052493;28;20890;-43
2022/03/11 01:24:38;;;;;;;16.60;14.90;;;;;;;1.57;68.10;102704.72;5052673;28;20423;-44
2022/03/11 01:27:06;;;;;;;19.67;14.73;;;;;;;1.53;67.75;102689.22;5052711;28;20534;-46
2022/03/11 01:29:34;;;;;;;16.07;14.57;;;;;;;1.51;67.15;102701.59;5051992;28;20451;-45
2022/03/11 01:32:04;;;;;;;17.53;14.47;;;;;;;1.49;67.72;102696.41;5052257;28;20541;-46
2022/03/11 01:34:31;;;;;;;17.07;13.20;;;;;;;1.47;67.43;102690.41;5052200;28;20439;-46
2022/03/11 01:36:59;;;;;;;14.27;12.87;;;;;;;1.44;67.49;102687.13;5052447;28;20435;-46
2022/03/11 01:39:26;;;;;;;16.50;13.87;;;;;;;1.40;67.26;102680.38;5051674;28;20477;-44
2022/03/11 01:41:54;;;;;;;15.80;12.80;;;;;;;1.37;67.96;102676.16;5052276;28;20431;-45
2022/03/11 01:44:25;;;;;;;15.00;13.57;;;;;;;1.33;67.38;102674.63;5052214;28;20437;-45
2022/03/11 01:46:53;;;;;;;15.07;13.47;;;;;;;1.31;67.73;102678.28;5051892;28;20534;-44
2022/03/11 01:49:22;;;;;;;18.07;14.20;;;;;;;1.28;67.39;102673.22;5051553;28;20554;-47
2022/03/11 01:51:51;;;;;;;17.03;14.43;;;;;;;1.24;67.37;102672.53;5052050;28;20893;-44
2022/03/11 01:54:19;;;;;;;14.73;13.23;;;;;;;1.23;67.59;102673.47;5051917;28;20534;-44
2022/03/11 01:56:47;;;;;;;17.97;14.97;;;;;;;1.21;67.89;102670.09;5051772;28;20538;-46
2022/03/11 01:59:15;;;;;;;16.10;14.47;;;;;;;1.18;67.79;102670.25;5051262;28;20471;-45
2022/03/11 02:01:42;;;;;;;16.90;13.87;;;;;;;1.11;67.85;102672.38;5051763;28;20524;-44
2022/03/11 02:04:10;;;;;;;15.57;13.40;;;;;;;1.07;68.21;102663.00;5052046;28;20466;-46
2022/03/11 02:06:39;;;;;;;15.53;12.97;;;;;;;1.04;68.02;102667.59;5051898;28;20473;-46
2022/03/11 02:09:07;;;;;;;16.03;13.80;;;;;;;1.00;68.15;102664.28;5050972;28;21072;-44
2022/03/11 02:11:36;;;;;;;15.57;12.87;;;;;;;0.96;67.73;102660.13;5051640;28;20842;-47
2022/03/11 02:14:05;;;;;;;16.37;14.03;;;;;;;0.96;67.63;102667.16;5051536;28;20483;-44
2022/03/11 02:16:36;;;;;;;15.43;13.10;;;;;;;0.95;67.46;102662.88;5051749;28;20431;-44
2022/03/11 02:19:05;;;;;;;20.50;13.57;;;;;;;0.94;67.74;102663.78;5050992;28;21075;-44
2022/03/11 02:21:37;;;;;;;14.53;13.07;;;;;;;0.92;67.23;102663.03;5051205;28;20466;-47
2022/03/11 02:24:09;;;;;;;16.17;14.57;;;;;;;0.90;66.73;102659.63;5051463;28;20559;-45
2022/03/11 02:26:38;;;;;;;15.57;13.30;;;;;;;0.88;66.43;102661.50;5051393;28;20431;-47
2022/03/11 02:29:06;;;;;;;14.93;13.20;;;;;;;0.86;66.96;102668.63;5051030;28;20483;-46
2022/03/11 02:31:34;;;;;;;13.43;12.23;;;;;;;0.84;67.00;102665.22;5051695;28;20608;-46
2022/03/11 02:34:03;;;;;;;15.60;12.60;;;;;;;0.84;66.84;102663.47;5051497;28;20913;-45
2022/03/11 02:36:31;;;;;;;13.93;12.50;;;;;;;0.81;66.76;102670.66;5051486;28;20435;-44
2022/03/11 02:38:59;;;;;;;14.13;12.70;;;;;;;0.80;66.51;102661.09;5050658;28;20546;-44
2022/03/11 02:41:28;;;;;;;14.70;13.10;;;;;;;0.77;66.71;102664.75;5051538;28;20526;-46
2022/03/11 02:43:56;;;;;;;12.87;11.57;;;;;;;0.74;66.17;102659.69;5051180;28;20996;-44
2022/03/11 02:46:24;;;;;;;14.20;12.70;;;;;;;0.71;67.03;102665.09;5051345;28;20466;-45
2022/03/11 02:48:51;;;;;;;15.20;12.40;;;;;;;0.69;66.62;102660.88;5050556;28;20470;-46
2022/03/11 02:51:19;;;;;;;12.70;11.60;;;;;;;0.67;66.47;102653.06;5051290;28;20475;-46
2022/03/11 02:53:46;;;;;;;13.10;11.80;;;;;;;0.65;66.27;102651.47;5051021;28;20542;-44
2022/03/11 02:56:15;;;;;;;13.33;11.90;;;;;;;0.62;66.85;102654.28;5051435;28;20871;-45
2022/03/11 02:58:44;;;;;;;12.40;11.20;;;;;;;0.61;66.65;102650.78;5050543;28;20466;-46
2022/03/11 03:01:12;;;;;;;13.73;11.87;;;;;;;0.59;66.41;102643.94;5051196;28;20427;-46
2022/03/11 03:03:40;;;;;;;13.70;11.80;;;;;;;0.59;65.87;102649.19;5051149;28;20458;-44
2022/03/11 03:06:07;;;;;;;13.53;11.40;;;;;;;0.57;65.73;102650.09;5051114;28;20520;-46
2022/03/11 03:08:35;;;;;;;13.53;12.03;;;;;;;0.57;65.20;102642.22;5050675;28;20465;-45
2022/03/11 03:11:03;;;;;;;14.33;12.40;;;;;;;0.57;65.53;102651.06;5051008;28;20975;-45
2022/03/11 03:13:30;;;;;;;14.60;12.60;;;;;;;0.57;65.34;102651.06;5050951;28;20459;-47
2022/03/11 03:15:59;;;;;;;15.17;11.90;;;;;;;0.51;65.73;102645.19;5051125;28;20522;-44
2022/03/11 03:18:27;;;;;;;14.20;12.57;;;;;;;0.51;65.50;102645.19;5050294;28;20462;-45
2022/03/11 03:20:55;;;;;;;13.00;11.33;;;;;;;0.49;65.18;102647.06;5051425;28;20858;-45
2022/03/11 03:23:24;;;;;;;12.43;11.17;;;;;;;0.50;65.29;102638.28;5051046;28;20554;-44
2022/03/11 03:25:53;;;;;;;12.90;11.43;;;;;;;0.49;64.82;102644.44;5051204;28;20788;-44
2022/03/11 03:28:22;;;;;;;15.50;12.20;;;;;;;0.46;64.82;102649.03;5050593;28;20983;-44
2022/03/11 03:30:49;;;;;;;13.20;11.90;;;;;;;0.43;64.99;102647.41;5051250;28;20526;-47
2022/03/11 03:33:18;;;;;;;13.73;12.03;;;;;;;0.43;64.91;102647.41;5050831;28;20907;-44
2022/03/11 03:35:46;;;;;;;16.80;12.00;;;;;;;0.42;65.29;102650.09;5054689;28;20522;-44
2022/03/11 03:38:13;;;;;;;13.47;10.83;;;;;;;0.38;65.27;102656.47;5054034;28;20462;-44
2022/03/11 03:40:41;;;;;;;13.67;12.17;;;;;;;0.36;65.47;102643.44;5054541;28;20435;-44
2022/03/11 03:43:09;;;;;;;13.30;11.87;;;;;;;0.37;65.46;102645.13;5054485;28;20542;-45
2022/03/11 03:45:36;;;;;;;13.47;12.03;;;;;;;0.34;64.67;102645.31;5054189;28;20518;-46
2022/03/11 03:48:05;;;;;;;14.47;11.80;;;;;;;0.33;65.15;102637.53;5053435;28;21228;-43
2022/03/11 03:50:34;;;;;;;13.93;11.70;;;;;;;0.34;64.40;102632.19;5054593;28;20431;-44
2022/03/11 03:53:01;;;;;;;11.57;10.47;;;;;;;0.35;64.66;102647.00;5054223;28;20485;-44
2022/03/11 03:55:29;;;;;;;12.60;11.40;;;;;;;0.34;65.12;102634.81;5054153;28;20525;-45
2022/03/11 03:57:56;;;;;;;13.50;11.83;;;;;;;0.33;64.22;102627.84;5053498;28;21018;-44
2022/03/11 04:00:24;;;;;;;13.03;11.63;;;;;;;0.33;64.37;102640.97;5054228;28;20526;-45
2022/03/11 04:02:52;;;;;;;14.90;12.90;;;;;;;0.29;64.57;102636.84;5054187;28;20454;-46
2022/03/11 04:05:20;;;;;;;12.93;11.63;;;;;;;0.27;64.23;102630.81;5054176;28;20481;-43
2022/03/11 04:07:50;;;;;;;13.70;12.40;;;;;;;0.27;64.39;102632.63;5053251;28;20509;-45
2022/03/11 04:10:18;;;;;;;15.10;12.40;;;;;;;0.28;63.69;102626.41;5053968;28;20530;-44
2022/03/11 04:12:47;;;;;;;13.63;12.23;;;;;;;0.28;63.96;102618.53;5053634;28;20486;-44
2022/03/11 04:15:14;;;;;;;13.70;12.20;;;;;;;0.29;63.72;102628.97;5053843;28;20427;-44
2022/03/11 04:17:42;;;;;;;12.20;10.90;;;;;;;0.28;63.43;102619.41;5053515;28;20455;-44
2022/03/11 04:20:11;;;;;;;12.97;11.67;;;;;;;0.26;63.74;102617.78;5053930;28;20523;-46
2022/03/11 04:22:42;;;;;;;13.93;12.53;;;;;;;0.28;63.35;102623.78;5053567;28;20501;-44
2022/03/11 04:25:13;;;;;;;16.20;11.57;;;;;;;0.26;63.17;102610.78;5053470;28;20438;-44
2022/03/11 04:27:41;;;;;;;14.30;11.70;;;;;;;0.25;63.47;102616.09;5053037;28;20494;-48
2022/03/11 04:30:10;;;;;;;13.70;12.10;;;;;;;0.22;63.01;102614.50;5053720;28;20530;-45
2022/03/11 04:32:38;;;;;;;14.80;11.63;;;;;;;0.21;63.07;102612.78;5053363;28;20519;-47
2022/03/11 04:35:07;;;;;;;13.03;11.67;;;;;;;0.17;63.38;102594.69;5053403;28;21016;-45
2022/03/11 04:37:35;;;;;;;13.77;12.03;;;;;;;0.18;63.28;102607.69;5052665;28;20855;-50
2022/03/11 04:40:03;;;;;;;14.40;11.20;;;;;;;0.19;63.26;102601.53;5053290;28;20470;-48
2022/03/11 04:42:32;;;;;;;16.30;11.60;;;;;;;0.18;62.76;102601.63;5053354;28;20534;-48
2022/03/11 04:45:00;;;;;;;13.10;11.50;;;;;;;0.19;62.41;102598.91;5052753;28;20538;-47
2022/03/11 04:47:28;;;;;;;14.73;12.67;;;;;;;0.22;62.43;102609.25;5052554;28;20865;-48
2022/03/11 04:49:55;;;;;;;13.07;11.57;;;;;;;0.21;61.92;102609.34;5053248;28;20446;-45
2022/03/11 04:52:23;;;;;;;12.50;11.20;;;;;;;0.19;62.40;102604.16;5052774;28;20485;-44
2022/03/11 04:54:51;;;;;;;16.73;13.03;;;;;;;0.18;61.59;102602.47;5053018;28;20423;-46
2022/03/11 04:57:19;;;;;;;18.33;11.73;;;;;;;0.18;62.24;102615.56;5052373;28;20518;-46
2022/03/11 04:59:47;;;;;;;12.47;11.30;;;;;;;0.17;62.39;102607.81;5053132;28;20534;-49
2022/03/11 05:02:24;;;;;;;14.67;12.00;;;;;;;0.17;61.50;102595.53;5053004;28;21038;-45
2022/03/11 05:04:52;;;;;;;13.87;10.20;;;;;;;0.15;61.91;102610.50;5053094;28;20422;-44
2022/03/11 05:07:20;;;;;;;12.40;11.03;;;;;;;0.15;62.10;102613.13;5052350;28;20539;-46
2022/03/11 05:09:47;;;;;;;14.40;11.67;;;;;;;0.13;61.92;102609.75;5052653;28;20427;-45
2022/03/11 05:12:15;;;;;;;14.70;12.73;;;;;;;0.14;61.43;102607.97;5052580;28;20885;-46
2022/03/11 05:14:43;;;;;;;14.03;12.63;;;;;;;0.12;61.39;102612.47;5052665;28;20546;-45
2022/03/11 05:17:12;;;;;;;11.73;10.80;;;;;;;0.11;61.47;102608.13;5052295;28;20427;-46
2022/03/11 05:19:40;;;;;;;17.93;10.87;;;;;;;0.08;61.21;102603.06;5052122;28;20450;-47
2022/03/11 05:22:08;;;;;;;11.97;10.10;;;;;;;0.10;61.57;102614.31;5052147;28;20558;-47
2022/03/11 05:24:36;;;;;;;12.43;10.87;;;;;;;0.07;62.08;102611.84;5052556;28;20438;-45
2022/03/11 05:27:04;;;;;;;13.37;11.30;;;;;;;0.05;61.42;102601.47;5052520;28;20526;-45
2022/03/11 05:29:32;;;;;;;12.90;11.20;;;;;;;0.03;61.43;102602.47;5051755;28;20530;-46
2022/03/11 05:32:00;;;;;;;14.30;11.70;;;;;;;-0.01;62.16;102604.41;5052208;28;20450;-44
2022/03/11 05:34:29;;;;;;;19.40;14.30;;;;;;;-0.03;61.70;102596.63;5052480;28;20949;-46
2022/03/11 05:36:56;;;;;;;16.53;11.93;;;;;;;-0.06;62.15;102599.41;5052283;28;20549;-44
2022/03/11 05:39:24;;;;;;;16.40;11.00;;;;;;;-0.04;62.01;102594.09;5051565;28;20469;-45
2022/03/11 05:41:52;;;;;;;12.90;11.60;;;;;;;-0.05;61.38;102590.63;5052090;28;20470;-46
2022/03/11 05:44:19;;;;;;;13.57;11.97;;;;;;;-0.03;61.78;102591.38;5052068;28;20979;-46
2022/03/11 05:46:47;;;;;;;13.23;11.90;;;;;;;-0.02;62.05;102593.06;5052190;28;20535;-45
2022/03/11 05:49:15;;;;;;;18.27;12.60;;;;;;;-0.01;62.03;102599.16;5051433;28;20491;-45
2022/03/11 05:51:43;;;;;;;14.73;11.50;;;;;;;-0.04;61.57;102592.31;5052223;28;20435;-49
2022/03/11 05:54:11;;;;;;;14.33;10.67;;;;;;;-0.02;61.26;102586.97;5051868;28;20582;-45
2022/03/11 05:56:39;;;;;;;12.40;11.30;;;;;;;-0.01;61.44;102593.91;5051215;28;20461;-49
2022/03/11 05:59:06;;;;;;;14.00;12.60;;;;;;;-0.03;61.32;102594.00;5051075;28;20463;-48
2022/03/11 06:01:35;;;;;;;13.10;11.33;;;;;;;0.00;60.87;102595.63;5051972;28;20530;-45
2022/03/11 06:04:04;;;;;;;14.33;11.17;;;;;;;0.03;60.99;102597.22;5051830;28;20828;-45
2022/03/11 06:06:32;;;;;;;12.20;11.00;;;;;;;0.04;60.65;102591.88;5051670;28;20949;-47
2022/03/11 06:09:02;;;;;;;13.63;12.17;;;;;;;0.07;60.27;102593.50;5051034;28;20557;-46
2022/03/11 06:11:29;;;;;;;14.37;12.60;;;;;;;0.14;60.28;102600.94;5051528;28;20423;-45
2022/03/11 06:13:57;;;;;;;14.67;10.83;;;;;;;0.69;59.19;102592.63;5051476;28;20982;-45
2022/03/11 06:16:24;;;;;;;15.87;12.40;;;;;;;1.33;58.46;102605.44;5051773;28;20441;-46
2022/03/11 06:18:53;;;;;;;12.87;11.17;;;;;;;1.78;55.45;102593.91;5051003;28;20875;-45
2022/03/11 06:21:20;;;;;;;15.63;12.53;;;;;;;2.10;55.00;102592.72;5051461;28;20442;-45
2022/03/11 06:23:48;;;;;;;14.90;12.03;;;;;;;2.60;53.39;102587.69;5051795;28;20455;-45
2022/03/11 06:26:17;;;;;;;13.03;11.13;;;;;;;2.91;51.39;102598.84;5051444;28;20550;-45
2022/03/11 06:28:45;;;;;;;12.20;11.00;;;;;;;3.31;51.89;102595.22;5050887;28;20830;-47
2022/03/11 06:31:12;;;;;;;13.70;12.40;;;;;;;3.56;50.54;102592.56;5051404;28;20465;-45
2022/03/11 06:33:40;;;;;;;13.20;11.80;;;;;;;3.86;49.84;102594.88;5051484;28;20475;-48
2022/03/11 06:36:08;;;;;;;16.53;13.00;;;;;;;4.19;49.59;102599.53;5051457;28;20869;-46
2022/03/11 06:38:35;;;;;;;13.70;12.50;;;;;;;4.42;49.61;102601.38;5050612;28;20495;-45
2022/03/11 06:41:03;;;;;;;13.90;11.87;;;;;;;4.55;47.19;102591.59;5051272;28;20435;-45
2022/03/11 06:43:32;;;;;;;12.73;11.43;;;;;;;4.38;48.28;102605.19;5051389;28;20446;-47
2022/03/11 06:46:00;;;;;;;13.03;11.80;;;;;;;4.55;48.13;102601.31;5051200;28;20750;-45
2022/03/11 06:48:27;;;;;;;12.90;11.20;;;;;;;4.76;47.61;102600.56;5050662;28;20481;-46
2022/03/11 06:50:55;;;;;;;15.07;13.10;;;;;;;4.99;47.21;102599.69;5051344;28;20471;-48
2022/03/11 06:53:25;;;;;;;14.80;13.30;;;;;;;4.88;45.56;102593.53;5051029;28;20483;-45
2022/03/11 06:55:53;;;;;;;19.57;13.20;;;;;;;4.79;47.14;102600.34;5051375;28;20431;-46
2022/03/11 06:58:21;;;;;;;14.60;13.10;;;;;;;4.79;45.74;102597.72;5050444;28;20467;-46
2022/03/11 07:00:50;;;;;;;13.60;12.00;;;;;;;4.34;46.65;102598.44;5051286;28;20481;-46
2022/03/11 07:03:18;;;;;;;15.43;12.07;;;;;;;4.28;46.70;102591.81;5050981;28;20454;-45
2022/03/11 07:05:46;;;;;;;14.17;12.77;;;;;;;4.25;46.76;102596.47;5051120;28;20457;-47
2022/03/11 07:08:14;;;;;;;13.40;12.30;;;;;;;4.02;48.21;102598.13;5051935;28;20463;-47
2022/03/11 07:10:41;;;;;;;17.97;13.97;;;;;;;3.87;48.15;102600.06;5054753;28;20477;-44
2022/03/11 07:13:09;;;;;;;15.60;12.70;;;;;;;3.81;47.97;102597.84;5054879;28;20557;-45
2022/03/11 07:15:40;;;;;;;16.77;13.00;;;;;;;3.65;48.54;102597.22;5055038;28;20431;-44
2022/03/11 07:18:09;;;;;;;14.00;12.60;;;;;;;3.38;48.59;102606.19;5053788;28;20469;-45
2022/03/11 07:20:36;;;;;;;15.93;12.63;;;;;;;3.13;49.39;102593.84;5055255;28;20433;-47
2022/03/11 07:23:24;;;;;;;15.23;12.10;;;;;;;2.98;49.29;102602.75;5054645;28;20467;-48
2022/03/11 07:25:51;;;;;;;12.67;11.67;;;;;;;2.79;49.58;102595.22;5054566;28;20527;-45
2022/03/11 07:28:20;;;;;;;18.37;12.40;;;;;;;2.85;49.40;102591.34;5068117;22;20475;-44
2022/03/11 07:30:48;;;;;;;13.33;12.03;;;;;;;2.95;49.76;102601.19;5054398;28;20427;-47
2022/03/11 07:33:17;;;;;;;13.70;12.17;;;;;;;2.85;49.15;102589.56;5054501;28;20449;-47
2022/03/11 07:35:44;;;;;;;12.87;11.67;;;;;;;3.13;49.68;102588.56;5054529;28;20470;-43
2022/03/11 07:38:12;;;;;;;15.07;12.13;;;;;;;3.29;49.22;102578.66;5053639;28;20594;-46
2022/03/11 07:40:40;;;;;;;13.20;11.90;;;;;;;3.48;47.92;102580.88;5054414;28;20935;-45
2022/03/11 07:43:09;;;;;;;14.93;11.10;;;;;;;3.60;47.58;102574.75;5053953;28;20443;-47
2022/03/11 07:45:37;;;;;;;14.50;11.93;;;;;;;3.59;46.92;102580.97;5054032;28;20432;-47
2022/03/11 07:48:05;;;;;;;12.60;11.33;;;;;;;3.70;47.64;102581.06;5053600;28;20506;-45
2022/03/11 07:50:35;;;;;;;12.00;10.83;;;;;;;3.82;46.90;102580.22;5053989;28;20427;-45
2022/03/11 07:53:03;;;;;;;13.70;11.70;;;;;;;3.97;46.19;102573.00;5054150;28;20446;-46
2022/03/11 07:55:31;;;;;;;14.47;13.07;;;;;;;3.94;46.56;102574.06;5053996;28;20558;-48
2022/03/11 07:57:59;;;;;;;13.53;12.10;;;;;;;3.95;46.37;102578.38;5053094;28;20546;-49
2022/03/11 08:00:26;;;;;;;13.90;12.50;;;;;;;3.99;46.10;102573.72;5054102;28;20847;-43
2022/03/11 08:02:54;;;;;;;13.30;12.10;;;;;;;3.82;46.56;102572.31;5054072;28;20463;-44
2022/03/11 08:05:22;;;;;;;13.67;12.17;;;;;;;3.82;46.44;102569.66;5053765;28;20438;-42
2022/03/11 08:07:51;;;;;;;12.13;11.07;;;;;;;3.56;45.66;102560.06;5052941;28;20470;-46
2022/03/11 08:10:19;;;;;;;11.57;10.50;;;;;;;3.54;45.29;102556.69;5053674;28;20526;-43
2022/03/11 08:12:48;;;;;;;11.30;10.50;;;;;;;3.48;45.71;102549.22;5053926;28;20441;-44
2022/03/11 08:15:17;;;;;;;12.07;10.97;;;;;;;3.63;46.33;102546.34;5053491;28;20563;-44
2022/03/11 08:17:45;;;;;;;13.43;12.10;;;;;;;3.55;45.83;102540.78;5052962;28;20475;-46
2022/03/11 08:20:12;;;;;;;12.40;11.30;;;;;;;3.47;45.16;102543.09;5052939;28;20435;-46
2022/03/11 08:22:40;;;;;;;14.20;11.50;;;;;;;3.47;45.38;102545.72;5053353;28;20960;-44
2022/03/11 08:25:10;;;;;;;12.63;11.33;;;;;;;3.43;45.50;102544.28;5053506;28;20465;-42
2022/03/11 08:27:37;;;;;;;12.47;11.20;;;;;;;3.62;46.12;102528.84;5052868;28;20554;-44
2022/03/11 08:30:06;;;;;;;15.30;12.27;;;;;;;3.68;45.64;102540.75;5053451;28;20871;-42
2022/03/11 08:32:34;;;;;;;11.50;10.40;;;;;;;3.74;45.22;102543.81;5053431;28;20441;-45
2022/03/11 08:35:02;;;;;;;12.87;11.60;;;;;;;3.83;44.70;102537.88;5053299;28;20463;-42
2022/03/11 08:37:37;;;;;;;13.63;12.20;;;;;;;3.78;44.46;102537.34;5052460;28;20451;-47
2022/03/11 08:40:07;;;;;;;13.00;11.67;;;;;;;3.78;43.73;102525.97;5053263;28;20526;-46
2022/03/11 08:42:37;;;;;;;14.57;13.07;;;;;;;3.72;43.44;102535.16;5053178;28;20539;-43
2022/03/11 08:45:06;;;;;;;13.67;12.27;;;;;;;3.88;43.71;102541.00;5053256;28;20522;-44
2022/03/11 08:47:34;;;;;;;13.60;11.93;;;;;;;3.92;43.47;102528.44;5051928;28;20458;-47
2022/03/11 08:50:03;;;;;;;12.73;11.53;;;;;;;3.74;42.86;102520.06;5053227;28;20522;-43
2022/03/11 08:52:31;;;;;;;12.40;11.23;;;;;;;3.87;42.79;102520.03;5053166;28;20442;-48
2022/03/11 08:54:58;;;;;;;14.63;11.33;;;;;;;3.94;42.94;102526.56;5052567;28;20482;-46
2022/03/11 08:57:26;;;;;;;13.20;11.80;;;;;;;4.05;42.39;102502.84;5051977;28;20551;-43
2022/03/11 09:00:01;;;;;;;13.23;11.90;;;;;;;4.34;42.56;102500.72;5052890;28;20996;-44
2022/03/11 09:02:28;;;;;;;12.17;10.87;;;;;;;4.43;42.07;102486.81;5052469;28;20433;-44
2022/03/11 09:04:56;;;;;;;13.63;11.90;;;;;;;4.62;42.24;102494.22;5052767;28;20543;-44
2022/03/11 09:07:29;;;;;;;12.67;11.30;;;;;;;4.56;42.21;102482.31;5052021;28;20566;-42
2022/03/11 09:09:56;;;;;;;13.13;11.70;;;;;;;4.69;41.13;102488.34;5052504;28;20489;-44
2022/03/11 09:12:24;;;;;;;13.77;11.57;;;;;;;4.85;40.64;102483.59;5052579;28;20438;-45
2022/03/11 09:14:57;;;;;;;12.47;11.20;;;;;;;4.79;39.62;102472.63;5052479;28;21094;-46
2022/03/11 09:17:26;;;;;;;11.77;10.57;;;;;;;4.72;39.78;102463.50;5051628;28;20447;-45
2022/03/11 09:19:54;;;;;;;12.30;11.03;;;;;;;4.83;39.76;102463.53;5052184;28;20979;-44
2022/03/11 09:22:41;;;;;;;12.27;10.97;;;;;;;5.02;40.44;102461.13;5052568;28;20489;-43
2022/03/11 09:25:10;;;;;;;13.47;9.87;;;;;;;4.85;38.23;102457.16;5052347;28;20522;-44
2022/03/11 09:27:39;;;;;;;13.30;11.10;;;;;;;4.96;38.82;102462.44;5051151;28;20978;-47
2022/03/11 09:30:09;;;;;;;12.90;11.60;;;;;;;5.23;39.22;102462.09;5052553;28;20522;-46
2022/03/11 09:32:38;;;;;;;12.17;11.07;;;;;;;5.38;38.67;102460.91;5052468;28;20443;-43
2022/03/11 09:35:06;;;;;;;12.90;11.67;;;;;;;5.43;39.48;102463.19;5051924;28;20550;-43
2022/03/11 09:37:34;;;;;;;13.33;12.00;;;;;;;5.44;37.83;102460.41;5051562;28;20486;-41
2022/03/11 09:40:02;;;;;;;11.87;10.77;;;;;;;5.61;37.14;102455.59;5052125;28;20534;-43
2022/03/11 09:42:29;;;;;;;11.53;10.33;;;;;;;5.75;36.87;102450.88;5052080;28;20872;-45
2022/03/11 09:44:57;;;;;;;12.43;11.13;;;;;;;5.72;36.06;102431.75;5051945;28;20431;-45
2022/03/11 09:47:25;;;;;;;12.07;10.90;;;;;;;5.67;35.63;102445.38;5051120;28;20451;-44
2022/03/11 09:49:55;;;;;;;10.93;10.03;;;;;;;5.88;37.40;102443.66;5051988;28;20434;-44
2022/03/11 09:52:23;;;;;;;12.63;10.40;;;;;;;6.00;36.42;102439.97;5051425;28;20448;-46
2022/03/11 09:54:51;;;;;;;11.30;10.40;;;;;;;6.09;35.57;102441.88;5052011;28;20867;-43
2022/03/11 09:57:22;;;;;;;11.30;10.20;;;;;;;6.25;34.69;102441.47;5051020;28;20534;-47
2022/03/11 09:59:50;;;;;;;10.87;9.37;;;;;;;6.23;34.15;102438.09;5051703;28;20835;-44
2022/03/11 10:02:25;;;;;;;10.77;9.77;;;;;;;6.20;34.67;102440.16;5051981;28;20537;-48
2022/03/11 10:04:57;;;;;;;13.50;10.33;;;;;;;6.40;34.63;102439.34;5051568;28;20481;-45
2022/03/11 10:07:45;;;;;;;10.97;10.07;;;;;;;6.41;34.35;102441.03;5050867;28;20844;-47
2022/03/11 10:10:15;;;;;;;11.77;10.63;;;;;;;6.28;34.14;102435.06;5051838;28;20518;-44
2022/03/11 10:13:03;;;;;;;12.77;10.50;;;;;;;6.30;34.47;102436.59;5051809;28;20442;-46
2022/03/11 10:15:31;;;;;;;10.83;9.93;;;;;;;6.29;33.31;102428.81;5051275;28;21068;-44
2022/03/11 10:18:02;;;;;;;11.60;10.50;;;;;;;6.41;34.19;102428.63;5051079;28;20517;-45
2022/03/11 10:20:32;;;;;;;11.30;10.20;;;;;;;6.47;34.00;102425.47;5051781;28;20451;-44
2022/03/11 10:22:59;;;;;;;9.70;8.90;;;;;;;6.47;33.48;102416.66;5051234;28;20471;-46
2022/03/11 10:25:28;;;;;;;16.43;10.90;;;;;;;6.58;32.81;102417.44;5051576;28;20427;-46
2022/03/11 10:28:00;;;;;;;11.10;10.00;;;;;;;6.56;33.54;102406.13;5050645;28;20471;-46
2022/03/11 10:30:29;;;;;;;15.07;13.57;;;;;;;6.79;33.53;102412.13;5051333;28;20433;-43
2022/03/11 10:32:58;;;;;;;12.27;11.07;;;;;;;6.87;33.49;102406.16;5051517;28;20463;-45
2022/03/11 10:35:36;;;;;;;12.67;10.83;;;;;;;6.94;32.44;102407.31;5051487;28;20565;-47
2022/03/11 10:38:07;;;;;;;11.00;10.10;;;;;;;7.07;33.19;102394.66;5050215;28;20467;-49
2022/03/11 10:40:37;;;;;;;11.50;10.40;;;;;;;7.19;32.70;102402.41;5051620;28;20427;-46
2022/03/11 10:43:16;;;;;;;13.53;10.10;;;;;;;7.21;31.49;102391.63;5052787;28;20534;-46
2022/03/11 10:45:45;;;;;;;11.13;9.97;;;;;;;7.30;33.45;102390.00;5054887;28;20430;-47
2022/03/11 10:48:14;;;;;;;12.47;9.47;;;;;;;7.50;32.17;102386.41;5054528;28;20493;-47
2022/03/11 10:50:43;;;;;;;11.57;9.30;;;;;;;7.38;31.04;102384.88;5055147;28;20530;-50
2022/03/11 10:53:12;;;;;;;11.30;9.47;;;;;;;7.40;31.34;102382.91;5055394;28;20498;-46
2022/03/11 10:55:42;;;;;;;10.80;9.90;;;;;;;7.37;31.97;102385.81;5055104;28;20510;-46
2022/03/11 10:58:16;;;;;;;12.37;10.40;;;;;;;7.46;31.36;102383.22;5054418;28;20463;-47
2022/03/11 11:00:45;;;;;;;12.20;11.00;;;;;;;7.55;30.96;102374.41;5055116;28;20466;-43
2022/03/11 11:03:13;;;;;;;11.00;9.97;;;;;;;7.77;31.06;102386.59;5055057;28;20964;-46
2022/03/11 11:05:43;;;;;;;12.70;9.10;;;;;;;7.92;29.43;102374.56;5055348;28;20427;-44
2022/03/11 11:08:10;;;;;;;9.40;8.60;;;;;;;8.04;29.84;102368.16;5054389;28;20463;-47
2022/03/11 11:10:39;;;;;;;10.50;9.43;;;;;;;8.14;29.97;102369.00;5055063;28;20463;-45
2022/03/11 11:13:09;;;;;;;9.67;8.77;;;;;;;8.22;29.94;102373.59;5054939;28;20982;-44
2022/03/11 11:15:39;;;;;;;9.20;8.10;;;;;;;8.25;29.14;102368.81;5054838;28;20505;-46
2022/03/11 11:18:14;;;;;;;8.07;7.47;;;;;;;8.22;27.85;102365.59;5054318;28;20470;-43
2022/03/11 11:20:48;;;;;;;9.67;8.50;;;;;;;8.42;28.50;102366.47;5055050;28;20844;-46
2022/03/11 11:23:17;;;;;;;9.37;8.33;;;;;;;8.28;26.34;102359.75;5054921;28;20525;-48